Time;durP1;ratioP1;P1;durP2;ratioP2;P2;SDS_P1;SDS_P2;PMS_P1;PMS_P2;Temp;Humidity;BMP_temperature;BMP_pressure;BME280_temperature;BME280_humidity;BME280_pressure;Samples;Min_cycle;Max_cycle;Signal;HPM_P1;HPM_P2
2023/08/12 00:01:11;;;;;;;6.13;5.60;;;;;;;;;;5117978;28;20047;-82
2023/08/12 00:03:39;;;;;;;6.82;6.22;;;;;;;;;;5116876;28;20126;-83
2023/08/12 00:06:06;;;;;;;7.35;5.60;;;;;;;;;;5116836;28;20048;-82
2023/08/12 00:08:34;;;;;;;5.10;4.70;;;;;;;;;;5115726;28;20050;-83
2023/08/12 00:11:01;;;;;;;5.05;4.65;;;;;;;;;;5115924;28;20089;-82
2023/08/12 00:13:28;;;;;;;5.65;5.10;;;;;;;;;;5117463;28;20100;-82
2023/08/12 00:15:56;;;;;;;5.82;5.25;;;;;;;;;;5115876;28;20043;-82
2023/08/12 00:18:23;;;;;;;7.72;5.65;;;;;;;;;;5117027;28;20092;-83
2023/08/12 00:20:51;;;;;;;7.22;5.55;;;;;;;;;;5118687;28;20055;-83
2023/08/12 00:23:18;;;;;;;6.93;5.53;;;;;;;;;;5118008;28;20047;-83
2023/08/12 00:25:46;;;;;;;7.85;5.45;;;;;;;;;;5118580;28;20059;-83
2023/08/12 00:28:13;;;;;;;9.45;6.03;;;;;;;;;;5118598;28;20052;-82
2023/08/12 00:30:40;;;;;;;6.72;6.15;;;;;;;;;;5117941;28;20104;-82
2023/08/12 00:33:07;;;;;;;7.53;5.80;;;;;;;;;;5116277;28;20104;-83
2023/08/12 00:35:35;;;;;;;8.63;5.60;;;;;;;;;;5115400;28;20552;-83
2023/08/12 00:38:02;;;;;;;5.68;5.18;;;;;;;;;;5116934;28;20051;-82
2023/08/12 00:40:30;;;;;;;9.60;6.30;;;;;;;;;;5115564;28;20397;-82
2023/08/12 00:42:57;;;;;;;6.28;5.10;;;;;;;;;;5114989;28;20054;-82
2023/08/12 00:45:24;;;;;;;7.07;5.45;;;;;;;;;;5116335;28;20051;-81
2023/08/12 00:47:52;;;;;;;6.20;5.70;;;;;;;;;;5116442;28;20043;-81
2023/08/12 00:50:19;;;;;;;7.50;5.50;;;;;;;;;;5116656;28;20044;-81
2023/08/12 00:52:47;;;;;;;7.95;5.60;;;;;;;;;;5116646;28;20052;-81
2023/08/12 00:55:14;;;;;;;5.63;5.25;;;;;;;;;;5114618;28;20043;-81
2023/08/12 00:57:41;;;;;;;7.82;5.40;;;;;;;;;;5115606;28;20047;-81
2023/08/12 01:00:09;;;;;;;6.05;5.45;;;;;;;;;;5118099;28;20048;-81
2023/08/12 01:02:36;;;;;;;10.48;5.55;;;;;;;;;;5120268;28;20043;-81
2023/08/12 01:05:04;;;;;;;6.22;5.70;;;;;;;;;;5117540;28;20112;-82
2023/08/12 01:07:31;;;;;;;6.15;5.57;;;;;;;;;;5117863;28;20109;-81
2023/08/12 01:09:58;;;;;;;6.38;5.78;;;;;;;;;;5118308;28;20044;-81
2023/08/12 01:12:31;;;;;;;6.65;6.05;;;;;;;;;;5117559;28;20052;-80
2023/08/12 01:14:59;;;;;;;;;;;;;;;;;;5117267;28;20060;-81
2023/08/12 01:17:27;;;;;;;6.20;5.68;;;;;;;;;;5118220;28;20432;-81
2023/08/12 01:19:55;;;;;;;6.65;6.18;;;;;;;;;;5117629;28;20051;-81
2023/08/12 01:22:24;;;;;;;7.55;6.60;;;;;;;;;;5117378;28;20044;-80
2023/08/12 01:24:52;;;;;;;7.70;6.55;;;;;;;;;;5117194;28;20047;-81
2023/08/12 01:27:20;;;;;;;7.05;6.45;;;;;;;;;;5118593;28;20105;-81
2023/08/12 01:29:50;;;;;;;7.63;6.70;;;;;;;;;;5116776;28;20047;-80
2023/08/12 01:32:32;;;;;;;7.63;6.35;;;;;;;;;;5119062;28;20096;-81
2023/08/12 01:35:03;;;;;;;7.00;6.40;;;;;;;;;;5116974;28;20066;-80
2023/08/12 01:37:31;;;;;;;10.25;7.15;;;;;;;;;;5116659;28;20088;-82
2023/08/12 01:40:00;;;;;;;7.85;6.28;;;;;;;;;;5118178;28;20051;-81
2023/08/12 01:42:28;;;;;;;7.22;6.50;;;;;;;;;;5121701;28;20534;-80
2023/08/12 01:44:56;;;;;;;6.90;6.20;;;;;;;;;;5123015;28;20073;-82
2023/08/12 01:47:23;;;;;;;7.63;6.72;;;;;;;;;;5123280;28;20055;-81
2023/08/12 01:49:51;;;;;;;6.65;6.00;;;;;;;;;;5124147;28;20043;-82
2023/08/12 01:52:18;;;;;;;8.43;6.97;;;;;;;;;;5122507;28;20052;-81
2023/08/12 01:54:45;;;;;;;8.25;6.97;;;;;;;;;;5122338;28;20052;-82
2023/08/12 01:57:12;;;;;;;6.55;5.95;;;;;;;;;;5125601;28;20064;-82
2023/08/12 01:59:41;;;;;;;8.25;6.63;;;;;;;;;;5123205;28;20047;-82
2023/08/12 02:02:08;;;;;;;7.95;6.55;;;;;;;;;;5122193;28;20047;-81
2023/08/12 02:04:37;;;;;;;7.25;6.55;;;;;;;;;;5119421;28;20097;-81
2023/08/12 02:07:05;;;;;;;7.60;6.75;;;;;;;;;;5119540;28;20051;-81
2023/08/12 02:09:32;;;;;;;6.55;5.97;;;;;;;;;;5119101;28;20101;-80
2023/08/12 02:11:59;;;;;;;8.45;6.15;;;;;;;;;;5120349;28;20108;-81
2023/08/12 02:14:26;;;;;;;7.07;6.47;;;;;;;;;;5117037;28;20055;-80
2023/08/12 02:16:54;;;;;;;13.20;7.53;;;;;;;;;;5114812;28;20063;-81
2023/08/12 02:19:21;;;;;;;7.32;6.72;;;;;;;;;;5114279;28;20205;-81
2023/08/12 02:21:48;;;;;;;7.95;7.20;;;;;;;;;;5115125;28;20488;-81
2023/08/12 02:24:15;;;;;;;10.35;7.05;;;;;;;;;;5114275;28;20090;-80
2023/08/12 02:26:43;;;;;;;7.30;6.60;;;;;;;;;;5113789;28;20080;-81
2023/08/12 02:29:10;;;;;;;9.20;7.68;;;;;;;;;;5115998;28;20051;-81
2023/08/12 02:31:37;;;;;;;6.82;6.30;;;;;;;;;;5115134;28;20055;-81
2023/08/12 02:34:04;;;;;;;6.95;6.35;;;;;;;;;;5116176;28;20415;-80
2023/08/12 02:36:32;;;;;;;7.47;6.80;;;;;;;;;;5114761;28;20051;-81
2023/08/12 02:38:59;;;;;;;8.25;7.25;;;;;;;;;;5114875;28;20050;-81
2023/08/12 02:41:26;;;;;;;7.70;7.00;;;;;;;;;;5116057;28;20067;-82
2023/08/12 02:43:54;;;;;;;8.10;6.65;;;;;;;;;;5115846;28;20047;-80
2023/08/12 02:46:21;;;;;;;8.15;6.43;;;;;;;;;;5114791;28;20066;-81
2023/08/12 02:48:48;;;;;;;7.85;7.25;;;;;;;;;;5114824;28;20055;-81
2023/08/12 02:51:16;;;;;;;7.82;7.03;;;;;;;;;;5116214;28;20523;-80
2023/08/12 02:53:43;;;;;;;8.50;7.40;;;;;;;;;;5116821;28;20052;-80
2023/08/12 02:56:10;;;;;;;10.75;7.63;;;;;;;;;;5115131;28;20043;-81
2023/08/12 02:58:37;;;;;;;12.18;8.05;;;;;;;;;;5115024;28;20078;-81
2023/08/12 03:01:04;;;;;;;9.15;8.25;;;;;;;;;;5115341;28;20491;-81
2023/08/12 03:03:32;;;;;;;8.73;7.82;;;;;;;;;;5115625;28;20071;-81
2023/08/12 03:05:59;;;;;;;8.85;7.28;;;;;;;;;;5116168;28;20054;-81
2023/08/12 03:08:26;;;;;;;7.30;6.57;;;;;;;;;;5116188;28;20047;-81
2023/08/12 03:11:03;;;;;;;10.35;6.07;;;;;;;;;;5117630;28;20051;-80
2023/08/12 03:13:30;;;;;;;9.45;7.13;;;;;;;;;;5133067;28;20099;-81
2023/08/12 03:15:58;;;;;;;9.80;7.25;;;;;;;;;;5132538;28;20055;-81
2023/08/12 03:18:25;;;;;;;8.43;6.55;;;;;;;;;;5117610;28;20089;-81
2023/08/12 03:20:52;;;;;;;6.85;6.10;;;;;;;;;;5115914;28;20047;-81
2023/08/12 03:23:20;;;;;;;5.53;5.13;;;;;;;;;;5113266;28;20039;-80
2023/08/12 03:25:51;;;;;;;6.65;6.05;;;;;;;;;;5114624;28;20101;-81
2023/08/12 03:28:18;;;;;;;6.88;6.35;;;;;;;;;;5112915;28;20404;-80
2023/08/12 03:30:54;;;;;;;10.20;5.78;;;;;;;;;;5114234;28;20056;-81
2023/08/12 03:33:21;;;;;;;6.70;6.20;;;;;;;;;;5115907;28;20251;-81
2023/08/12 03:35:49;;;;;;;8.00;6.70;;;;;;;;;;5120948;28;20078;-82
2023/08/12 03:38:17;;;;;;;10.75;6.75;;;;;;;;;;5118365;28;20483;-82
2023/08/12 03:40:44;;;;;;;6.43;5.68;;;;;;;;;;5117440;28;20495;-81
2023/08/12 03:43:11;;;;;;;8.40;6.30;;;;;;;;;;5118471;28;20052;-81
2023/08/12 03:45:42;;;;;;;10.48;6.35;;;;;;;;;;5118426;28;20044;-82
2023/08/12 03:48:09;;;;;;;7.20;6.47;;;;;;;;;;5117581;28;20080;-81
2023/08/12 03:50:37;;;;;;;8.68;6.53;;;;;;;;;;5116130;28;20052;-82
2023/08/12 03:53:05;;;;;;;9.48;7.38;;;;;;;;;;5115178;28;20059;-82
2023/08/12 03:55:32;;;;;;;9.50;7.13;;;;;;;;;;5115532;28;20144;-80
2023/08/12 03:58:00;;;;;;;6.80;6.20;;;;;;;;;;5115003;28;20500;-81
2023/08/12 04:00:27;;;;;;;9.77;7.80;;;;;;;;;;5115116;28;20089;-80
2023/08/12 04:02:55;;;;;;;8.32;6.88;;;;;;;;;;5114337;28;20108;-80
2023/08/12 04:05:22;;;;;;;13.68;7.22;;;;;;;;;;5114042;28;20052;-81
2023/08/12 04:07:49;;;;;;;9.55;6.78;;;;;;;;;;5114384;28;20108;-81
2023/08/12 04:10:16;;;;;;;7.65;6.95;;;;;;;;;;5115429;28;20134;-81
2023/08/12 04:12:44;;;;;;;9.02;6.63;;;;;;;;;;5114027;28;20166;-80
2023/08/12 04:15:12;;;;;;;9.60;7.10;;;;;;;;;;5114617;28;20047;-80
2023/08/12 04:17:42;;;;;;;7.80;7.10;;;;;;;;;;5112940;28;20093;-80
2023/08/12 04:20:09;;;;;;;6.30;5.82;;;;;;;;;;5114393;28;20054;-81
2023/08/12 04:22:37;;;;;;;6.30;5.70;;;;;;;;;;5112234;28;20400;-81
2023/08/12 04:25:04;;;;;;;6.20;5.80;;;;;;;;;;5114145;28;20051;-80
2023/08/12 04:27:31;;;;;;;6.63;5.70;;;;;;;;;;5112870;28;20048;-81
2023/08/12 04:29:59;;;;;;;5.78;5.28;;;;;;;;;;5114022;28;20495;-80
2023/08/12 04:32:26;;;;;;;6.22;5.72;;;;;;;;;;5112948;28;20426;-81
2023/08/12 04:34:53;;;;;;;7.03;5.53;;;;;;;;;;5116531;28;20135;-80
2023/08/12 04:37:20;;;;;;;11.38;6.10;;;;;;;;;;5115932;28;20061;-80
2023/08/12 04:39:48;;;;;;;6.53;5.68;;;;;;;;;;5116304;28;20089;-81
2023/08/12 04:42:15;;;;;;;7.32;5.80;;;;;;;;;;5116431;28;20084;-80
2023/08/12 04:44:42;;;;;;;5.82;5.32;;;;;;;;;;5116097;28;20193;-81
2023/08/12 04:47:09;;;;;;;6.00;5.50;;;;;;;;;;5115798;28;20454;-81
2023/08/12 04:49:37;;;;;;;12.13;5.88;;;;;;;;;;5115340;28;20047;-80
2023/08/12 04:52:05;;;;;;;6.65;5.32;;;;;;;;;;5116953;28;20048;-80
2023/08/12 04:54:32;;;;;;;6.05;5.57;;;;;;;;;;5117275;28;20078;-80
2023/08/12 04:57:00;;;;;;;8.82;5.30;;;;;;;;;;5115453;28;20043;-81
2023/08/12 04:59:27;;;;;;;5.32;4.82;;;;;;;;;;5115674;28;20048;-80
2023/08/12 05:01:54;;;;;;;5.07;4.45;;;;;;;;;;5116545;28;20055;-80
2023/08/12 05:04:41;;;;;;;5.35;4.85;;;;;;;;;;5116446;28;20569;-80
2023/08/12 05:07:09;;;;;;;4.40;4.07;;;;;;;;;;5137489;28;20090;-81
2023/08/12 05:09:36;;;;;;;5.15;4.53;;;;;;;;;;5137280;28;20107;-82
2023/08/12 05:12:03;;;;;;;10.05;4.43;;;;;;;;;;5134762;28;20044;-81
2023/08/12 05:14:31;;;;;;;4.63;4.20;;;;;;;;;;5125266;28;20416;-82
2023/08/12 05:16:58;;;;;;;6.72;4.28;;;;;;;;;;5122224;28;20065;-82
2023/08/12 05:19:25;;;;;;;4.25;3.92;;;;;;;;;;5121928;28;20044;-82
2023/08/12 05:21:52;;;;;;;4.65;3.97;;;;;;;;;;5123244;28;20066;-82
2023/08/12 05:24:20;;;;;;;4.55;3.90;;;;;;;;;;5123177;28;20055;-81
2023/08/12 05:26:47;;;;;;;4.90;3.70;;;;;;;;;;5122871;28;20062;-82
2023/08/12 05:29:14;;;;;;;4.13;3.80;;;;;;;;;;5121670;28;20087;-81
2023/08/12 05:31:41;;;;;;;7.25;4.13;;;;;;;;;;5120171;28;20119;-81
2023/08/12 05:34:09;;;;;;;6.03;4.05;;;;;;;;;;5120531;28;20071;-81
2023/08/12 05:36:36;;;;;;;8.75;4.30;;;;;;;;;;5119542;28;20070;-82
2023/08/12 05:39:03;;;;;;;7.72;4.18;;;;;;;;;;5119569;28;20047;-82
2023/08/12 05:41:31;;;;;;;7.22;4.00;;;;;;;;;;5119567;28;20047;-81
2023/08/12 05:43:58;;;;;;;6.00;4.28;;;;;;;;;;5118807;28;20100;-82
2023/08/12 05:46:26;;;;;;;8.60;3.88;;;;;;;;;;5119769;28;20043;-81
2023/08/12 05:48:53;;;;;;;8.95;4.40;;;;;;;;;;5120132;28;20520;-82
2023/08/12 05:51:20;;;;;;;9.38;4.20;;;;;;;;;;5120425;28;20044;-81
2023/08/12 05:53:48;;;;;;;15.10;4.40;;;;;;;;;;5119386;28;20047;-81
2023/08/12 05:56:16;;;;;;;8.82;4.30;;;;;;;;;;5120082;28;20052;-81
2023/08/12 05:58:43;;;;;;;6.32;3.85;;;;;;;;;;5118421;28;20483;-82
2023/08/12 06:01:10;;;;;;;7.93;3.85;;;;;;;;;;5118477;28;20051;-81
2023/08/12 06:03:38;;;;;;;7.82;4.38;;;;;;;;;;5119763;28;20043;-81
2023/08/12 06:06:05;;;;;;;6.03;4.05;;;;;;;;;;5117766;28;20127;-82
2023/08/12 06:08:32;;;;;;;11.40;4.15;;;;;;;;;;5119396;28;20051;-82
2023/08/12 06:11:00;;;;;;;5.80;3.95;;;;;;;;;;5118971;28;20048;-81
2023/08/12 06:13:27;;;;;;;4.13;3.80;;;;;;;;;;5118158;28;20051;-81
2023/08/12 06:15:54;;;;;;;4.50;3.38;;;;;;;;;;5120551;28;20134;-82
2023/08/12 06:18:22;;;;;;;3.58;3.28;;;;;;;;;;5119208;28;20048;-82
2023/08/12 06:20:49;;;;;;;5.22;3.28;;;;;;;;;;5118010;28;20048;-81
2023/08/12 06:23:16;;;;;;;5.75;3.05;;;;;;;;;;5118530;28;20080;-81
2023/08/12 06:25:43;;;;;;;3.08;2.80;;;;;;;;;;5119401;28;20503;-82
2023/08/12 06:28:11;;;;;;;3.67;3.00;;;;;;;;;;5119610;28;20101;-81
2023/08/12 06:30:38;;;;;;;3.58;3.08;;;;;;;;;;5117134;28;20051;-81
2023/08/12 06:33:05;;;;;;;6.45;3.00;;;;;;;;;;5118435;28;20556;-81
2023/08/12 06:35:33;;;;;;;4.00;3.60;;;;;;;;;;5119607;28;20051;-82
2023/08/12 06:38:00;;;;;;;3.22;3.10;;;;;;;;;;5117724;28;20552;-81
2023/08/12 06:40:27;;;;;;;6.57;3.22;;;;;;;;;;5117213;28;20104;-82
2023/08/12 06:42:55;;;;;;;4.55;2.90;;;;;;;;;;5116836;28;20488;-82
2023/08/12 06:45:22;;;;;;;6.25;3.38;;;;;;;;;;5116550;28;20048;-82
2023/08/12 06:47:49;;;;;;;15.27;3.80;;;;;;;;;;5117446;28;20048;-81
2023/08/12 06:50:16;;;;;;;7.68;3.60;;;;;;;;;;5122872;28;20533;-82
2023/08/12 06:52:44;;;;;;;8.02;3.67;;;;;;;;;;5119512;28;20048;-82
2023/08/12 06:55:11;;;;;;;5.35;3.70;;;;;;;;;;5120957;28;20044;-82
2023/08/12 06:57:38;;;;;;;3.97;3.58;;;;;;;;;;5118402;28;20040;-81
2023/08/12 07:00:06;;;;;;;4.15;3.47;;;;;;;;;;5118937;28;20066;-81
2023/08/12 07:02:33;;;;;;;4.50;3.63;;;;;;;;;;5117987;28;20050;-82
2023/08/12 07:05:01;;;;;;;4.00;3.60;;;;;;;;;;5119315;28;20466;-81
2023/08/12 07:07:28;;;;;;;10.00;4.38;;;;;;;;;;5116864;28;20047;-81
2023/08/12 07:09:55;;;;;;;5.65;3.80;;;;;;;;;;5115778;28;20051;-81
2023/08/12 07:12:23;;;;;;;8.45;3.92;;;;;;;;;;5117433;28;20051;-81
2023/08/12 07:14:50;;;;;;;9.77;4.53;;;;;;;;;;5115026;28;20400;-82
2023/08/12 07:17:17;;;;;;;11.07;4.40;;;;;;;;;;5116679;28;20047;-81
2023/08/12 07:19:44;;;;;;;6.18;4.40;;;;;;;;;;5115199;28;20104;-81
2023/08/12 07:22:11;;;;;;;6.15;3.80;;;;;;;;;;5116115;28;20453;-81
2023/08/12 07:24:39;;;;;;;5.43;3.75;;;;;;;;;;5114022;28;20079;-82
2023/08/12 07:27:06;;;;;;;7.60;3.97;;;;;;;;;;5114574;28;20097;-81
2023/08/12 07:29:40;;;;;;;6.75;4.30;;;;;;;;;;5090713;28;20374;-80
2023/08/12 07:32:07;;;;;;;7.32;4.38;;;;;;;;;;5090995;28;20079;-81
2023/08/12 07:34:35;;;;;;;13.15;5.18;;;;;;;;;;5089415;28;20044;-80
2023/08/12 07:37:02;;;;;;;6.10;4.80;;;;;;;;;;5092726;28;20048;-80
2023/08/12 07:39:29;;;;;;;11.38;6.40;;;;;;;;;;5091072;28;20048;-80
2023/08/12 07:41:56;;;;;;;6.53;5.32;;;;;;;;;;5093146;28;20113;-80
2023/08/12 07:44:24;;;;;;;4.95;4.55;;;;;;;;;;5090125;28;20055;-80
2023/08/12 07:46:51;;;;;;;5.03;4.40;;;;;;;;;;5091331;28;20059;-80
2023/08/12 07:49:18;;;;;;;5.70;3.95;;;;;;;;;;5090635;28;20499;-80
2023/08/12 07:51:45;;;;;;;38.08;6.65;;;;;;;;;;5091832;28;20556;-81
2023/08/12 07:54:13;;;;;;;5.60;4.60;;;;;;;;;;5092276;28;20534;-81
2023/08/12 07:56:40;;;;;;;32.78;6.95;;;;;;;;;;5091592;28;20048;-81
2023/08/12 07:59:07;;;;;;;17.88;5.20;;;;;;;;;;5092655;28;20079;-80
2023/08/12 08:01:35;;;;;;;10.55;4.18;;;;;;;;;;5091359;28;20483;-80
2023/08/12 08:04:05;;;;;;;20.10;4.57;;;;;;;;;;5092763;28;20059;-81
2023/08/12 08:06:32;;;;;;;25.17;6.07;;;;;;;;;;5090971;28;20048;-81
2023/08/12 08:09:03;;;;;;;26.30;5.50;;;;;;;;;;5090389;28;20068;-81
2023/08/12 08:11:31;;;;;;;11.23;4.28;;;;;;;;;;5093623;28;20059;-81
2023/08/12 08:13:59;;;;;;;10.65;3.92;;;;;;;;;;5092720;28;20048;-81
2023/08/12 08:16:26;;;;;;;17.83;4.47;;;;;;;;;;5091683;28;20044;-81
2023/08/12 08:18:54;;;;;;;13.93;3.88;;;;;;;;;;5092264;28;20467;-81
2023/08/12 08:21:22;;;;;;;8.55;3.92;;;;;;;;;;5093516;28;20054;-81
2023/08/12 08:23:49;;;;;;;4.40;2.67;;;;;;;;;;5093466;28;20076;-81
2023/08/12 08:26:16;;;;;;;15.25;3.10;;;;;;;;;;5097106;28;20472;-81
2023/08/12 08:28:44;;;;;;;3.28;2.50;;;;;;;;;;5098761;28;20048;-81
2023/08/12 08:31:11;;;;;;;3.83;3.55;;;;;;;;;;5095384;28;20056;-81
2023/08/12 08:33:38;;;;;;;5.05;2.80;;;;;;;;;;5093674;28;20044;-81
2023/08/12 08:36:10;;;;;;;8.65;2.53;;;;;;;;;;5094307;28;20052;-81
2023/08/12 08:38:37;;;;;;;2.47;1.90;;;;;;;;;;5095161;28;20044;-82
2023/08/12 08:41:05;;;;;;;1.88;1.77;;;;;;;;;;5079555;28;20052;-81
2023/08/12 08:43:33;;;;;;;2.67;1.45;;;;;;;;;;5075423;28;20067;-81
2023/08/12 08:46:00;;;;;;;1.60;1.50;;;;;;;;;;5075862;28;20049;-81
2023/08/12 08:48:28;;;;;;;2.92;1.70;;;;;;;;;;5076458;28;20056;-81
2023/08/12 08:50:55;;;;;;;1.83;1.58;;;;;;;;;;5076987;28;20045;-81
2023/08/12 08:53:23;;;;;;;1.65;1.55;;;;;;;;;;5081050;28;20048;-81
2023/08/12 08:55:50;;;;;;;3.30;1.58;;;;;;;;;;5081286;28;20129;-80
2023/08/12 08:58:18;;;;;;;1.40;1.30;;;;;;;;;;5081903;28;20056;-81
2023/08/12 09:00:48;;;;;;;1.77;1.67;;;;;;;;;;5079106;28;20064;-82
2023/08/12 09:03:16;;;;;;;1.65;1.55;;;;;;;;;;5081171;28;20059;-81
2023/08/12 09:05:43;;;;;;;1.52;1.42;;;;;;;;;;5079698;28;20121;-80
2023/08/12 09:08:12;;;;;;;3.13;1.65;;;;;;;;;;5080164;28;20047;-81
2023/08/12 09:10:40;;;;;;;4.55;1.65;;;;;;;;;;5082015;28;20051;-81
2023/08/12 09:13:08;;;;;;;5.47;1.50;;;;;;;;;;5081956;28;20052;-81
2023/08/12 09:15:36;;;;;;;1.77;1.63;;;;;;;;;;5081095;28;20044;-80
2023/08/12 09:18:06;;;;;;;1.38;1.27;;;;;;;;;;5081563;28;20071;-80
2023/08/12 09:20:35;;;;;;;2.72;1.70;;;;;;;;;;5083181;28;20049;-81
2023/08/12 09:23:03;;;;;;;3.50;1.50;;;;;;;;;;5096048;28;20048;-81
2023/08/12 09:25:30;;;;;;;2.95;1.67;;;;;;;;;;5095533;28;20055;-81
2023/08/12 09:28:01;;;;;;;1.40;1.30;;;;;;;;;;5096557;28;20060;-81
2023/08/12 09:30:31;;;;;;;2.33;1.60;;;;;;;;;;5083418;28;20059;-81
2023/08/12 09:33:00;;;;;;;6.30;2.10;;;;;;;;;;5075135;28;20052;-81
2023/08/12 09:35:34;;;;;;;1.85;1.30;;;;;;;;;;5075182;28;20526;-80
2023/08/12 09:38:07;;;;;;;2.97;1.60;;;;;;;;;;5075170;28;20495;-80
2023/08/12 09:40:35;;;;;;;2.80;1.45;;;;;;;;;;5075265;28;20049;-80
2023/08/12 09:43:02;;;;;;;3.33;1.70;;;;;;;;;;5075004;28;20044;-80
2023/08/12 09:45:34;;;;;;;1.20;1.10;;;;;;;;;;5074676;28;20075;-80
2023/08/12 09:48:02;;;;;;;1.50;1.40;;;;;;;;;;5073162;28;20503;-82
2023/08/12 09:50:30;;;;;;;1.10;1.10;;;;;;;;;;5075345;28;20045;-80
2023/08/12 09:52:57;;;;;;;2.83;1.50;;;;;;;;;;5072725;28;20063;-81
2023/08/12 09:55:25;;;;;;;2.28;1.40;;;;;;;;;;5074464;28;20071;-81
2023/08/12 09:57:54;;;;;;;4.57;1.30;;;;;;;;;;5074003;28;20101;-80
2023/08/12 10:00:25;;;;;;;1.27;1.27;;;;;;;;;;5074743;28;20442;-81
2023/08/12 10:02:52;;;;;;;1.52;1.20;;;;;;;;;;5076648;28;20052;-81
2023/08/12 10:05:23;;;;;;;1.23;1.20;;;;;;;;;;5080735;28;20044;-83
2023/08/12 10:07:51;;;;;;;1.30;1.30;;;;;;;;;;5081182;28;20048;-82
2023/08/12 10:10:18;;;;;;;2.90;1.20;;;;;;;;;;5080384;28;20456;-82
2023/08/12 10:12:46;;;;;;;1.35;1.20;;;;;;;;;;5080312;28;20106;-82
2023/08/12 10:15:13;;;;;;;2.65;1.38;;;;;;;;;;5080860;28;20044;-81
2023/08/12 10:17:44;;;;;;;1.35;1.30;;;;;;;;;;5078572;28;20079;-81
2023/08/12 10:20:20;;;;;;;4.47;1.40;;;;;;;;;;5075270;28;20075;-81
2023/08/12 10:22:48;;;;;;;10.23;2.58;;;;;;;;;;5074761;28;20049;-81
2023/08/12 10:25:16;;;;;;;3.10;1.50;;;;;;;;;;5077593;28;20048;-80
2023/08/12 10:27:43;;;;;;;2.10;1.15;;;;;;;;;;5075945;28;20461;-81
2023/08/12 10:30:10;;;;;;;1.70;1.30;;;;;;;;;;5076610;28;20098;-82
2023/08/12 10:32:38;;;;;;;4.55;1.60;;;;;;;;;;5074833;28;20546;-80
2023/08/12 10:35:06;;;;;;;1.23;1.13;;;;;;;;;;5078774;28;20442;-81
2023/08/12 10:37:34;;;;;;;1.30;1.30;;;;;;;;;;5076217;28;20491;-81
2023/08/12 10:40:08;;;;;;;2.67;1.85;;;;;;;;;;5076871;28;20044;-81
2023/08/12 10:42:44;;;;;;;2.97;1.40;;;;;;;;;;5080436;28;20087;-81
2023/08/12 10:45:12;;;;;;;4.55;1.45;;;;;;;;;;5082443;28;20048;-81
2023/08/12 10:47:40;;;;;;;1.35;1.27;;;;;;;;;;5079897;28;20052;-81
2023/08/12 10:50:18;;;;;;;4.38;1.50;;;;;;;;;;5080337;28;20040;-81
2023/08/12 10:52:45;;;;;;;3.97;1.55;;;;;;;;;;5078930;28;20052;-82
2023/08/12 10:55:20;;;;;;;5.75;1.83;;;;;;;;;;5078757;28;20041;-81
2023/08/12 10:57:49;;;;;;;2.65;1.40;;;;;;;;;;5080204;28;20399;-82
2023/08/12 11:00:17;;;;;;;1.50;1.40;;;;;;;;;;5081927;28;20465;-81
2023/08/12 11:02:45;;;;;;;6.05;2.30;;;;;;;;;;5081020;28;20086;-80
2023/08/12 11:05:14;;;;;;;2.97;1.50;;;;;;;;;;5079543;28;20123;-82
2023/08/12 11:07:45;;;;;;;5.18;2.05;;;;;;;;;;5080158;28;20052;-81
2023/08/12 11:10:14;;;;;;;4.20;1.80;;;;;;;;;;5079552;28;20044;-81
2023/08/12 11:12:55;;;;;;;4.45;1.67;;;;;;;;;;5079000;28;20048;-81
2023/08/12 11:15:39;;;;;;;5.18;1.50;;;;;;;;;;5079211;28;20048;-81
2023/08/12 11:18:07;;;;;;;3.40;1.45;;;;;;;;;;5075702;28;20066;-81
2023/08/12 11:20:35;;;;;;;4.35;1.88;;;;;;;;;;5076987;28;20430;-81
2023/08/12 11:23:03;;;;;;;1.30;1.30;;;;;;;;;;5078397;28;20052;-83
2023/08/12 11:25:31;;;;;;;3.22;1.50;;;;;;;;;;5074963;28;20506;-82
2023/08/12 11:27:59;;;;;;;3.65;1.40;;;;;;;;;;5077019;28;20064;-82
2023/08/12 11:30:26;;;;;;;1.30;1.30;;;;;;;;;;5074972;28;20045;-81
2023/08/12 11:32:57;;;;;;;2.38;1.27;;;;;;;;;;5075359;28;20063;-81
2023/08/12 11:35:24;;;;;;;2.08;1.60;;;;;;;;;;5076820;28;20054;-80
2023/08/12 11:37:53;;;;;;;4.47;1.40;;;;;;;;;;5076459;28;20044;-81
2023/08/12 11:40:20;;;;;;;2.38;1.30;;;;;;;;;;5075524;28;20063;-80
2023/08/12 11:42:48;;;;;;;2.80;1.40;;;;;;;;;;5077032;28;20048;-82
2023/08/12 11:45:20;;;;;;;1.40;1.40;;;;;;;;;;5083583;28;20048;-82
2023/08/12 11:47:52;;;;;;;1.80;1.60;;;;;;;;;;5080943;28;20572;-83
2023/08/12 11:50:21;;;;;;;1.58;1.48;;;;;;;;;;5079096;28;20048;-82
2023/08/12 11:52:48;;;;;;;1.90;1.77;;;;;;;;;;5078305;28;20048;-82
2023/08/12 11:55:16;;;;;;;1.90;1.80;;;;;;;;;;5078196;28;20059;-81
2023/08/12 11:57:44;;;;;;;1.42;1.40;;;;;;;;;;5075563;28;20099;-81
2023/08/12 12:00:15;;;;;;;2.50;1.50;;;;;;;;;;5075492;28;20048;-81
2023/08/12 12:02:49;;;;;;;2.10;1.60;;;;;;;;;;5072832;28;20469;-81
2023/08/12 12:05:18;;;;;;;2.00;1.30;;;;;;;;;;5073548;28;20048;-81
2023/08/12 12:07:51;;;;;;;2.92;1.80;;;;;;;;;;5074908;28;20055;-82
2023/08/12 12:10:19;;;;;;;1.75;1.55;;;;;;;;;;5077028;28;20054;-82
2023/08/12 12:12:46;;;;;;;2.10;1.58;;;;;;;;;;5076550;28;20408;-80
2023/08/12 12:15:15;;;;;;;1.60;1.50;;;;;;;;;;5076174;28;20082;-81
2023/08/12 12:17:45;;;;;;;1.88;1.63;;;;;;;;;;5079775;28;20118;-81
2023/08/12 12:20:14;;;;;;;2.33;1.80;;;;;;;;;;5080032;28;20052;-81
2023/08/12 12:22:45;;;;;;;3.13;1.70;;;;;;;;;;5078240;28;20044;-82
2023/08/12 12:25:13;;;;;;;2.90;1.88;;;;;;;;;;5079124;28;20045;-80
2023/08/12 12:27:41;;;;;;;1.48;1.38;;;;;;;;;;5079160;28;20094;-81
2023/08/12 12:30:10;;;;;;;1.50;1.40;;;;;;;;;;5081075;28;20044;-82
2023/08/12 12:32:37;;;;;;;1.90;1.60;;;;;;;;;;5079174;28;20045;-81
2023/08/12 12:35:07;;;;;;;2.08;1.50;;;;;;;;;;5082209;28;20136;-82
2023/08/12 12:37:34;;;;;;;1.98;1.75;;;;;;;;;;5079135;28;20188;-82
2023/08/12 12:40:02;;;;;;;2.55;1.90;;;;;;;;;;5080077;28;20070;-81
2023/08/12 12:42:30;;;;;;;1.75;1.65;;;;;;;;;;5081622;28;20053;-81
2023/08/12 12:44:58;;;;;;;4.05;1.85;;;;;;;;;;5081057;28;20056;-81
2023/08/12 12:47:25;;;;;;;2.38;1.60;;;;;;;;;;5080560;28;20580;-81
2023/08/12 12:49:52;;;;;;;4.55;2.03;;;;;;;;;;5078207;28;20098;-82
2023/08/12 12:52:19;;;;;;;2.00;1.90;;;;;;;;;;5078034;28;20052;-81
2023/08/12 12:54:47;;;;;;;2.40;2.20;;;;;;;;;;5077707;28;20423;-81
2023/08/12 12:57:14;;;;;;;2.22;1.70;;;;;;;;;;5078555;28;20044;-81
2023/08/12 12:59:41;;;;;;;3.95;1.83;;;;;;;;;;5077154;28;20109;-81
2023/08/12 13:02:09;;;;;;;2.15;1.70;;;;;;;;;;5078054;28;20052;-82
2023/08/12 13:04:36;;;;;;;5.10;1.92;;;;;;;;;;5079040;28;20424;-81
2023/08/12 13:07:04;;;;;;;2.60;2.03;;;;;;;;;;5077007;28;20048;-81
2023/08/12 13:09:31;;;;;;;2.25;1.48;;;;;;;;;;5077870;28;20040;-81
2023/08/12 13:11:58;;;;;;;2.92;2.00;;;;;;;;;;5076245;28;20044;-81
2023/08/12 13:14:26;;;;;;;1.70;1.60;;;;;;;;;;5075554;28;20110;-80
2023/08/12 13:16:53;;;;;;;2.38;2.17;;;;;;;;;;5077403;28;20053;-80
2023/08/12 13:19:20;;;;;;;2.10;1.90;;;;;;;;;;5076240;28;20135;-81
2023/08/12 13:21:47;;;;;;;2.00;1.70;;;;;;;;;;5075977;28;20122;-81
2023/08/12 13:24:15;;;;;;;3.20;2.13;;;;;;;;;;5082560;28;20048;-82
2023/08/12 13:26:42;;;;;;;2.38;1.95;;;;;;;;;;5081774;28;20055;-82
2023/08/12 13:29:09;;;;;;;2.55;1.77;;;;;;;;;;5081847;28;20580;-81
2023/08/12 13:31:37;;;;;;;3.58;1.83;;;;;;;;;;5080194;28;20495;-82
2023/08/12 13:34:04;;;;;;;2.55;1.95;;;;;;;;;;5076529;28;20388;-81
2023/08/12 13:36:31;;;;;;;2.10;2.00;;;;;;;;;;5075182;28;20041;-82
2023/08/12 13:38:58;;;;;;;1.85;1.75;;;;;;;;;;5076545;28;20071;-81
2023/08/12 13:41:27;;;;;;;2.10;1.90;;;;;;;;;;5076612;28;20455;-81
2023/08/12 13:43:54;;;;;;;2.03;1.85;;;;;;;;;;5076257;28;20079;-81
2023/08/12 13:46:22;;;;;;;1.83;1.73;;;;;;;;;;5077420;28;20103;-82
2023/08/12 13:48:49;;;;;;;4.68;1.77;;;;;;;;;;5075333;28;20415;-81
2023/08/12 13:51:16;;;;;;;3.47;1.80;;;;;;;;;;5077509;28;20044;-81
2023/08/12 13:53:43;;;;;;;2.08;1.90;;;;;;;;;;5075159;28;20049;-82
2023/08/12 13:56:11;;;;;;;3.03;2.13;;;;;;;;;;5077942;28;20048;-81
2023/08/12 13:58:38;;;;;;;2.08;1.98;;;;;;;;;;5076190;28;20048;-81
2023/08/12 14:01:06;;;;;;;2.60;2.40;;;;;;;;;;5078899;28;20057;-81
2023/08/12 14:03:33;;;;;;;2.35;1.85;;;;;;;;;;5076275;28;20056;-83
2023/08/12 14:06:00;;;;;;;10.57;3.67;;;;;;;;;;5077269;28;20519;-82
2023/08/12 14:08:28;;;;;;;5.78;2.72;;;;;;;;;;5078212;28;20048;-83
2023/08/12 14:10:55;;;;;;;32.80;6.03;;;;;;;;;;5077087;28;20477;-83
2023/08/12 14:13:22;;;;;;;6.47;2.67;;;;;;;;;;5076602;28;20044;-84
2023/08/12 14:15:50;;;;;;;10.82;2.88;;;;;;;;;;5078973;28;20048;-81
2023/08/12 14:18:17;;;;;;;9.00;2.65;;;;;;;;;;5082796;28;20052;-80
2023/08/12 14:20:44;;;;;;;3.50;1.92;;;;;;;;;;5081429;28;20045;-82
2023/08/12 14:23:12;;;;;;;3.97;2.20;;;;;;;;;;5081278;28;20098;-82
2023/08/12 14:25:39;;;;;;;5.30;2.40;;;;;;;;;;5080526;28;20052;-84
2023/08/12 14:28:07;;;;;;;2.15;1.55;;;;;;;;;;5080732;28;20102;-81
2023/08/12 14:30:34;;;;;;;5.43;2.20;;;;;;;;;;5080163;28;20051;-81
2023/08/12 14:33:01;;;;;;;4.00;1.90;;;;;;;;;;5080436;28;20411;-82
2023/08/12 14:35:28;;;;;;;4.50;1.83;;;;;;;;;;5082346;28;20052;-82
2023/08/12 14:37:56;;;;;;;3.17;2.25;;;;;;;;;;5081204;28;20045;-82
2023/08/12 14:40:23;;;;;;;2.65;2.45;;;;;;;;;;5082056;28;20426;-82
2023/08/12 14:42:50;;;;;;;2.42;2.25;;;;;;;;;;5081405;28;20411;-82
2023/08/12 14:45:17;;;;;;;4.18;2.42;;;;;;;;;;5081265;28;20046;-82
2023/08/12 14:47:44;;;;;;;2.58;1.73;;;;;;;;;;5079462;28;20048;-82